sensor_id;sensor_type;location;lat;lon;timestamp;temperature;humidity
41760;DHT22;27438;53.396;-6.670;2022-08-01T00:01:40;17.00;66.70
41760;DHT22;27438;53.396;-6.670;2022-08-01T00:04:06;17.00;66.80
41760;DHT22;27438;53.396;-6.670;2022-08-01T00:06:31;16.90;67.00
41760;DHT22;27438;53.396;-6.670;2022-08-01T00:08:57;16.90;67.20
41760;DHT22;27438;53.396;-6.670;2022-08-01T00:11:23;17.00;67.40
41760;DHT22;27438;53.396;-6.670;2022-08-01T00:13:49;17.00;67.60
41760;DHT22;27438;53.396;-6.670;2022-08-01T00:16:14;17.00;67.70
41760;DHT22;27438;53.396;-6.670;2022-08-01T00:18:41;17.00;67.70
41760;DHT22;27438;53.396;-6.670;2022-08-01T00:21:07;17.10;67.70
41760;DHT22;27438;53.396;-6.670;2022-08-01T00:23:33;17.10;67.70
41760;DHT22;27438;53.396;-6.670;2022-08-01T00:25:58;17.10;67.70
41760;DHT22;27438;53.396;-6.670;2022-08-01T00:28:24;17.10;67.70
41760;DHT22;27438;53.396;-6.670;2022-08-01T00:30:50;17.10;67.70
41760;DHT22;27438;53.396;-6.670;2022-08-01T00:33:16;17.10;67.70
41760;DHT22;27438;53.396;-6.670;2022-08-01T00:35:41;17.10;67.60
41760;DHT22;27438;53.396;-6.670;2022-08-01T00:38:07;17.10;67.50
41760;DHT22;27438;53.396;-6.670;2022-08-01T00:40:33;17.20;67.50
41760;DHT22;27438;53.396;-6.670;2022-08-01T00:42:59;17.20;67.50
41760;DHT22;27438;53.396;-6.670;2022-08-01T00:45:24;17.20;67.40
41760;DHT22;27438;53.396;-6.670;2022-08-01T00:47:50;17.20;67.50
41760;DHT22;27438;53.396;-6.670;2022-08-01T00:50:16;17.20;67.40
41760;DHT22;27438;53.396;-6.670;2022-08-01T00:52:42;17.20;67.40
41760;DHT22;27438;53.396;-6.670;2022-08-01T00:55:09;17.20;67.40
41760;DHT22;27438;53.396;-6.670;2022-08-01T00:57:37;17.20;67.50
41760;DHT22;27438;53.396;-6.670;2022-08-01T01:00:05;17.20;67.40
41760;DHT22;27438;53.396;-6.670;2022-08-01T01:02:31;17.20;67.40
41760;DHT22;27438;53.396;-6.670;2022-08-01T01:04:57;17.20;67.40
41760;DHT22;27438;53.396;-6.670;2022-08-01T01:07:33;17.20;67.30
41760;DHT22;27438;53.396;-6.670;2022-08-01T01:10:12;17.10;67.40
41760;DHT22;27438;53.396;-6.670;2022-08-01T01:12:51;17.10;67.30
41760;DHT22;27438;53.396;-6.670;2022-08-01T01:20:29;17.10;67.50
41760;DHT22;27438;53.396;-6.670;2022-08-01T01:25:41;17.10;67.20
41760;DHT22;27438;53.396;-6.670;2022-08-01T01:30:51;17.00;67.40
41760;DHT22;27438;53.396;-6.670;2022-08-01T01:33:20;16.90;67.70
41760;DHT22;27438;53.396;-6.670;2022-08-01T01:35:52;16.80;67.20
41760;DHT22;27438;53.396;-6.670;2022-08-01T01:38:23;16.80;67.30
41760;DHT22;27438;53.396;-6.670;2022-08-01T01:40:51;16.80;67.30
41760;DHT22;27438;53.396;-6.670;2022-08-01T01:43:19;16.80;67.40
41760;DHT22;27438;53.396;-6.670;2022-08-01T01:45:47;16.80;67.50
41760;DHT22;27438;53.396;-6.670;2022-08-01T01:48:15;16.70;67.40
41760;DHT22;27438;53.396;-6.670;2022-08-01T01:50:46;16.80;67.50
41760;DHT22;27438;53.396;-6.670;2022-08-01T01:53:15;16.70;67.50
41760;DHT22;27438;53.396;-6.670;2022-08-01T01:55:43;16.70;67.50
41760;DHT22;27438;53.396;-6.670;2022-08-01T01:58:13;16.60;67.60
41760;DHT22;27438;53.396;-6.670;2022-08-01T02:00:42;16.60;67.70
41760;DHT22;27438;53.396;-6.670;2022-08-01T02:03:09;16.60;67.70
41760;DHT22;27438;53.396;-6.670;2022-08-01T02:05:36;16.60;67.90
41760;DHT22;27438;53.396;-6.670;2022-08-01T02:08:03;16.50;67.90
41760;DHT22;27438;53.396;-6.670;2022-08-01T02:10:31;16.60;68.00
41760;DHT22;27438;53.396;-6.670;2022-08-01T02:12:59;16.60;68.10
41760;DHT22;27438;53.396;-6.670;2022-08-01T02:15:27;16.60;68.00
41760;DHT22;27438;53.396;-6.670;2022-08-01T02:17:56;16.60;67.90
41760;DHT22;27438;53.396;-6.670;2022-08-01T02:20:22;16.60;68.00
41760;DHT22;27438;53.396;-6.670;2022-08-01T02:22:56;16.60;68.00
41760;DHT22;27438;53.396;-6.670;2022-08-01T02:25:25;16.60;68.10
41760;DHT22;27438;53.396;-6.670;2022-08-01T02:28:06;16.60;68.10
41760;DHT22;27438;53.396;-6.670;2022-08-01T02:30:35;16.60;68.50
41760;DHT22;27438;53.396;-6.670;2022-08-01T02:33:05;16.60;67.90
41760;DHT22;27438;53.396;-6.670;2022-08-01T02:35:34;16.70;68.00
41760;DHT22;27438;53.396;-6.670;2022-08-01T02:38:03;16.70;67.90
41760;DHT22;27438;53.396;-6.670;2022-08-01T02:40:32;16.70;68.00
41760;DHT22;27438;53.396;-6.670;2022-08-01T02:43:00;16.70;68.40
41760;DHT22;27438;53.396;-6.670;2022-08-01T02:45:26;16.70;67.90
41760;DHT22;27438;53.396;-6.670;2022-08-01T02:47:57;16.70;67.80
41760;DHT22;27438;53.396;-6.670;2022-08-01T02:50:26;16.80;67.80
41760;DHT22;27438;53.396;-6.670;2022-08-01T02:52:54;16.70;67.80
41760;DHT22;27438;53.396;-6.670;2022-08-01T02:55:21;16.80;67.70
41760;DHT22;27438;53.396;-6.670;2022-08-01T02:57:49;16.70;67.70
41760;DHT22;27438;53.396;-6.670;2022-08-01T03:00:17;16.70;67.80
41760;DHT22;27438;53.396;-6.670;2022-08-01T03:02:43;16.70;67.80
41760;DHT22;27438;53.396;-6.670;2022-08-01T03:05:12;16.70;67.80
41760;DHT22;27438;53.396;-6.670;2022-08-01T03:07:39;16.60;67.80
41760;DHT22;27438;53.396;-6.670;2022-08-01T03:10:06;16.60;67.90
41760;DHT22;27438;53.396;-6.670;2022-08-01T03:12:34;16.60;68.00
41760;DHT22;27438;53.396;-6.670;2022-08-01T03:15:02;16.60;68.20
41760;DHT22;27438;53.396;-6.670;2022-08-01T03:17:30;16.60;68.30
41760;DHT22;27438;53.396;-6.670;2022-08-01T03:19:58;16.60;68.20
41760;DHT22;27438;53.396;-6.670;2022-08-01T03:22:26;16.60;68.00
41760;DHT22;27438;53.396;-6.670;2022-08-01T03:24:54;16.60;67.80
41760;DHT22;27438;53.396;-6.670;2022-08-01T03:27:22;16.60;67.70
41760;DHT22;27438;53.396;-6.670;2022-08-01T03:29:51;16.60;67.60
41760;DHT22;27438;53.396;-6.670;2022-08-01T03:32:18;16.60;67.50
41760;DHT22;27438;53.396;-6.670;2022-08-01T03:34:45;16.50;67.50
41760;DHT22;27438;53.396;-6.670;2022-08-01T03:40:24;16.40;67.60
41760;DHT22;27438;53.396;-6.670;2022-08-01T03:42:56;16.40;67.90
41760;DHT22;27438;53.396;-6.670;2022-08-01T03:45:26;16.30;67.70
41760;DHT22;27438;53.396;-6.670;2022-08-01T03:47:59;16.30;67.80
41760;DHT22;27438;53.396;-6.670;2022-08-01T03:50:27;16.20;67.90
41760;DHT22;27438;53.396;-6.670;2022-08-01T03:52:57;16.20;68.10
41760;DHT22;27438;53.396;-6.670;2022-08-01T03:55:25;16.20;68.20
41760;DHT22;27438;53.396;-6.670;2022-08-01T03:57:51;16.20;68.20
41760;DHT22;27438;53.396;-6.670;2022-08-01T04:00:17;16.20;68.30
41760;DHT22;27438;53.396;-6.670;2022-08-01T04:02:48;16.10;68.50
41760;DHT22;27438;53.396;-6.670;2022-08-01T04:05:17;16.10;68.70
41760;DHT22;27438;53.396;-6.670;2022-08-01T04:07:48;16.10;68.80
41760;DHT22;27438;53.396;-6.670;2022-08-01T04:10:21;16.20;69.20
41760;DHT22;27438;53.396;-6.670;2022-08-01T04:12:48;16.20;69.40
41760;DHT22;27438;53.396;-6.670;2022-08-01T04:15:13;16.20;69.60
41760;DHT22;27438;53.396;-6.670;2022-08-01T04:17:39;16.20;69.70
41760;DHT22;27438;53.396;-6.670;2022-08-01T04:20:06;16.30;69.80
41760;DHT22;27438;53.396;-6.670;2022-08-01T04:22:31;16.30;69.80
41760;DHT22;27438;53.396;-6.670;2022-08-01T04:24:58;16.30;70.00
41760;DHT22;27438;53.396;-6.670;2022-08-01T04:27:32;16.30;70.20
41760;DHT22;27438;53.396;-6.670;2022-08-01T04:30:01;16.40;70.20
41760;DHT22;27438;53.396;-6.670;2022-08-01T04:32:33;16.40;70.00
41760;DHT22;27438;53.396;-6.670;2022-08-01T04:35:04;16.50;70.50
41760;DHT22;27438;53.396;-6.670;2022-08-01T04:37:30;16.40;70.10
41760;DHT22;27438;53.396;-6.670;2022-08-01T04:39:58;16.40;70.40
41760;DHT22;27438;53.396;-6.670;2022-08-01T04:42:24;16.40;70.80
41760;DHT22;27438;53.396;-6.670;2022-08-01T04:44:51;16.30;71.00
41760;DHT22;27438;53.396;-6.670;2022-08-01T04:47:17;16.30;71.20
41760;DHT22;27438;53.396;-6.670;2022-08-01T04:49:43;16.30;71.50
41760;DHT22;27438;53.396;-6.670;2022-08-01T04:52:11;16.30;71.90
41760;DHT22;27438;53.396;-6.670;2022-08-01T04:54:37;16.30;72.10
41760;DHT22;27438;53.396;-6.670;2022-08-01T04:57:04;16.20;72.30
41760;DHT22;27438;53.396;-6.670;2022-08-01T04:59:31;16.20;72.60
41760;DHT22;27438;53.396;-6.670;2022-08-01T05:02:10;16.20;72.90
41760;DHT22;27438;53.396;-6.670;2022-08-01T05:04:37;16.20;73.20
41760;DHT22;27438;53.396;-6.670;2022-08-01T05:07:03;16.20;73.40
41760;DHT22;27438;53.396;-6.670;2022-08-01T05:09:29;16.20;73.70
41760;DHT22;27438;53.396;-6.670;2022-08-01T05:11:57;16.20;74.10
41760;DHT22;27438;53.396;-6.670;2022-08-01T05:14:25;16.20;74.30
41760;DHT22;27438;53.396;-6.670;2022-08-01T05:16:51;16.30;74.50
41760;DHT22;27438;53.396;-6.670;2022-08-01T05:19:17;16.30;74.60
41760;DHT22;27438;53.396;-6.670;2022-08-01T05:21:44;16.30;74.90
41760;DHT22;27438;53.396;-6.670;2022-08-01T05:24:09;16.40;75.20
41760;DHT22;27438;53.396;-6.670;2022-08-01T05:26:36;16.50;75.20
41760;DHT22;27438;53.396;-6.670;2022-08-01T05:29:02;16.50;75.20
41760;DHT22;27438;53.396;-6.670;2022-08-01T05:31:28;16.50;75.30
41760;DHT22;27438;53.396;-6.670;2022-08-01T05:33:54;16.60;75.40
41760;DHT22;27438;53.396;-6.670;2022-08-01T05:36:19;16.70;75.30
41760;DHT22;27438;53.396;-6.670;2022-08-01T05:38:45;16.80;75.40
41760;DHT22;27438;53.396;-6.670;2022-08-01T05:41:11;16.80;75.30
41760;DHT22;27438;53.396;-6.670;2022-08-01T05:43:37;16.90;75.20
41760;DHT22;27438;53.396;-6.670;2022-08-01T05:46:02;16.90;75.30
41760;DHT22;27438;53.396;-6.670;2022-08-01T05:48:28;16.90;75.40
41760;DHT22;27438;53.396;-6.670;2022-08-01T05:50:54;16.90;75.30
41760;DHT22;27438;53.396;-6.670;2022-08-01T05:53:20;17.00;75.30
41760;DHT22;27438;53.396;-6.670;2022-08-01T05:55:46;17.00;75.20
41760;DHT22;27438;53.396;-6.670;2022-08-01T05:58:11;17.00;75.30
41760;DHT22;27438;53.396;-6.670;2022-08-01T06:00:37;17.10;75.40
41760;DHT22;27438;53.396;-6.670;2022-08-01T06:03:03;17.10;75.60
41760;DHT22;27438;53.396;-6.670;2022-08-01T06:05:28;17.20;75.60
41760;DHT22;27438;53.396;-6.670;2022-08-01T06:07:54;17.30;75.60
41760;DHT22;27438;53.396;-6.670;2022-08-01T06:10:20;17.30;75.70
41760;DHT22;27438;53.396;-6.670;2022-08-01T06:12:45;17.30;75.70
41760;DHT22;27438;53.396;-6.670;2022-08-01T06:15:11;17.40;75.80
41760;DHT22;27438;53.396;-6.670;2022-08-01T06:17:37;17.40;75.90
41760;DHT22;27438;53.396;-6.670;2022-08-01T06:20:05;17.40;76.00
41760;DHT22;27438;53.396;-6.670;2022-08-01T06:22:31;17.50;76.00
41760;DHT22;27438;53.396;-6.670;2022-08-01T06:24:57;17.60;76.10
41760;DHT22;27438;53.396;-6.670;2022-08-01T06:27:23;17.60;75.90
41760;DHT22;27438;53.396;-6.670;2022-08-01T06:29:50;17.60;76.00
41760;DHT22;27438;53.396;-6.670;2022-08-01T06:32:21;17.70;76.20
41760;DHT22;27438;53.396;-6.670;2022-08-01T06:34:51;17.80;76.10
41760;DHT22;27438;53.396;-6.670;2022-08-01T06:37:17;17.90;76.00
41760;DHT22;27438;53.396;-6.670;2022-08-01T06:39:43;17.90;75.70
41760;DHT22;27438;53.396;-6.670;2022-08-01T06:42:09;17.90;75.70
41760;DHT22;27438;53.396;-6.670;2022-08-01T06:44:35;17.90;75.70
41760;DHT22;27438;53.396;-6.670;2022-08-01T06:47:01;17.90;75.70
41760;DHT22;27438;53.396;-6.670;2022-08-01T06:49:27;18.00;75.90
41760;DHT22;27438;53.396;-6.670;2022-08-01T06:51:53;18.10;75.80
41760;DHT22;27438;53.396;-6.670;2022-08-01T06:54:19;18.20;75.70
41760;DHT22;27438;53.396;-6.670;2022-08-01T06:56:44;18.30;75.40
41760;DHT22;27438;53.396;-6.670;2022-08-01T06:59:10;18.40;75.40
41760;DHT22;27438;53.396;-6.670;2022-08-01T07:01:36;18.40;75.10
41760;DHT22;27438;53.396;-6.670;2022-08-01T07:04:02;18.50;75.10
41760;DHT22;27438;53.396;-6.670;2022-08-01T07:06:28;18.60;75.10
41760;DHT22;27438;53.396;-6.670;2022-08-01T07:08:54;18.60;74.90
41760;DHT22;27438;53.396;-6.670;2022-08-01T07:11:20;18.70;74.60
41760;DHT22;27438;53.396;-6.670;2022-08-01T07:13:46;18.80;75.10
41760;DHT22;27438;53.396;-6.670;2022-08-01T07:16:13;18.90;74.50
41760;DHT22;27438;53.396;-6.670;2022-08-01T07:18:39;19.00;74.20
41760;DHT22;27438;53.396;-6.670;2022-08-01T07:21:05;19.20;74.00
41760;DHT22;27438;53.396;-6.670;2022-08-01T07:23:30;19.30;73.60
41760;DHT22;27438;53.396;-6.670;2022-08-01T07:25:56;19.40;73.10
41760;DHT22;27438;53.396;-6.670;2022-08-01T07:28:22;19.50;72.50
41760;DHT22;27438;53.396;-6.670;2022-08-01T07:30:48;19.40;71.90
41760;DHT22;27438;53.396;-6.670;2022-08-01T07:33:14;19.30;71.50
41760;DHT22;27438;53.396;-6.670;2022-08-01T07:35:40;19.20;71.80
41760;DHT22;27438;53.396;-6.670;2022-08-01T07:38:06;19.20;72.40
41760;DHT22;27438;53.396;-6.670;2022-08-01T07:40:32;19.30;72.10
41760;DHT22;27438;53.396;-6.670;2022-08-01T07:42:58;19.20;71.50
41760;DHT22;27438;53.396;-6.670;2022-08-01T07:45:24;19.20;71.40
41760;DHT22;27438;53.396;-6.670;2022-08-01T07:47:50;19.10;71.40
41760;DHT22;27438;53.396;-6.670;2022-08-01T07:50:16;19.10;71.90
41760;DHT22;27438;53.396;-6.670;2022-08-01T07:52:43;19.00;71.50
41760;DHT22;27438;53.396;-6.670;2022-08-01T07:55:10;18.90;71.90
41760;DHT22;27438;53.396;-6.670;2022-08-01T07:57:36;19.00;72.20
41760;DHT22;27438;53.396;-6.670;2022-08-01T08:00:04;19.00;72.40
41760;DHT22;27438;53.396;-6.670;2022-08-01T08:02:31;19.00;72.20
41760;DHT22;27438;53.396;-6.670;2022-08-01T08:04:57;19.00;71.80
41760;DHT22;27438;53.396;-6.670;2022-08-01T08:07:22;19.10;71.70
41760;DHT22;27438;53.396;-6.670;2022-08-01T08:09:48;19.00;71.60
41760;DHT22;27438;53.396;-6.670;2022-08-01T08:12:14;19.00;71.60
41760;DHT22;27438;53.396;-6.670;2022-08-01T08:14:39;19.00;71.60
41760;DHT22;27438;53.396;-6.670;2022-08-01T08:17:06;19.10;71.90
41760;DHT22;27438;53.396;-6.670;2022-08-01T08:19:31;19.20;72.10
41760;DHT22;27438;53.396;-6.670;2022-08-01T08:22:01;19.30;72.30
41760;DHT22;27438;53.396;-6.670;2022-08-01T08:24:27;19.50;72.40
41760;DHT22;27438;53.396;-6.670;2022-08-01T08:26:55;19.80;72.40
41760;DHT22;27438;53.396;-6.670;2022-08-01T08:29:22;20.00;71.80
41760;DHT22;27438;53.396;-6.670;2022-08-01T08:31:49;20.20;71.10
41760;DHT22;27438;53.396;-6.670;2022-08-01T08:34:16;20.30;70.70
41760;DHT22;27438;53.396;-6.670;2022-08-01T08:36:42;20.50;70.20
41760;DHT22;27438;53.396;-6.670;2022-08-01T08:39:08;20.70;69.80
41760;DHT22;27438;53.396;-6.670;2022-08-01T08:41:33;20.70;69.30
41760;DHT22;27438;53.396;-6.670;2022-08-01T08:44:04;20.80;69.10
41760;DHT22;27438;53.396;-6.670;2022-08-01T08:46:31;20.90;69.10
41760;DHT22;27438;53.396;-6.670;2022-08-01T08:48:59;21.00;69.40
41760;DHT22;27438;53.396;-6.670;2022-08-01T08:51:26;21.20;69.20
41760;DHT22;27438;53.396;-6.670;2022-08-01T08:53:56;21.40;68.40
41760;DHT22;27438;53.396;-6.670;2022-08-01T08:56:24;21.50;68.10
41760;DHT22;27438;53.396;-6.670;2022-08-01T08:58:51;21.60;67.60
41760;DHT22;27438;53.396;-6.670;2022-08-01T09:01:17;21.70;67.10
41760;DHT22;27438;53.396;-6.670;2022-08-01T09:03:44;21.80;66.80
41760;DHT22;27438;53.396;-6.670;2022-08-01T09:06:10;21.90;66.40
41760;DHT22;27438;53.396;-6.670;2022-08-01T09:08:36;22.00;66.50
41760;DHT22;27438;53.396;-6.670;2022-08-01T09:11:03;22.30;65.70
41760;DHT22;27438;53.396;-6.670;2022-08-01T09:13:29;22.30;64.20
41760;DHT22;27438;53.396;-6.670;2022-08-01T09:15:55;22.50;64.00
41760;DHT22;27438;53.396;-6.670;2022-08-01T09:18:44;22.60;63.50
41760;DHT22;27438;53.396;-6.670;2022-08-01T09:21:12;22.70;62.60
41760;DHT22;27438;53.396;-6.670;2022-08-01T09:23:48;22.90;62.60
41760;DHT22;27438;53.396;-6.670;2022-08-01T09:26:17;23.00;61.60
41760;DHT22;27438;53.396;-6.670;2022-08-01T09:28:44;23.10;61.40
41760;DHT22;27438;53.396;-6.670;2022-08-01T09:31:12;23.20;60.80
41760;DHT22;27438;53.396;-6.670;2022-08-01T09:33:58;23.30;60.30
41760;DHT22;27438;53.396;-6.670;2022-08-01T09:36:25;23.30;59.50
41760;DHT22;27438;53.396;-6.670;2022-08-01T09:38:53;23.40;59.70
41760;DHT22;27438;53.396;-6.670;2022-08-01T09:41:30;23.40;60.10
41760;DHT22;27438;53.396;-6.670;2022-08-01T09:43:59;23.60;59.80
41760;DHT22;27438;53.396;-6.670;2022-08-01T09:46:24;23.80;59.30
41760;DHT22;27438;53.396;-6.670;2022-08-01T09:49:02;23.90;58.60
41760;DHT22;27438;53.396;-6.670;2022-08-01T09:51:35;23.90;57.60
41760;DHT22;27438;53.396;-6.670;2022-08-01T09:54:03;23.80;57.10
41760;DHT22;27438;53.396;-6.670;2022-08-01T09:56:41;23.70;57.20
41760;DHT22;27438;53.396;-6.670;2022-08-01T09:59:08;23.60;58.00
41760;DHT22;27438;53.396;-6.670;2022-08-01T10:01:48;23.60;58.00
41760;DHT22;27438;53.396;-6.670;2022-08-01T10:04:20;23.60;57.40
41760;DHT22;27438;53.396;-6.670;2022-08-01T10:06:48;23.60;57.60
41760;DHT22;27438;53.396;-6.670;2022-08-01T10:09:32;23.60;57.40
41760;DHT22;27438;53.396;-6.670;2022-08-01T10:12:00;23.50;57.60
41760;DHT22;27438;53.396;-6.670;2022-08-01T10:14:27;23.60;57.20
41760;DHT22;27438;53.396;-6.670;2022-08-01T10:16:56;23.60;57.00
41760;DHT22;27438;53.396;-6.670;2022-08-01T10:19:24;23.70;57.20
41760;DHT22;27438;53.396;-6.670;2022-08-01T10:21:51;23.80;57.60
41760;DHT22;27438;53.396;-6.670;2022-08-01T10:24:23;24.10;57.10
41760;DHT22;27438;53.396;-6.670;2022-08-01T10:26:52;24.30;56.50
41760;DHT22;27438;53.396;-6.670;2022-08-01T10:29:19;24.40;56.30
41760;DHT22;27438;53.396;-6.670;2022-08-01T10:31:46;24.50;55.60
41760;DHT22;27438;53.396;-6.670;2022-08-01T10:34:16;24.60;55.10
41760;DHT22;27438;53.396;-6.670;2022-08-01T10:36:44;24.70;55.40
41760;DHT22;27438;53.396;-6.670;2022-08-01T10:39:11;24.90;55.70
41760;DHT22;27438;53.396;-6.670;2022-08-01T10:41:41;25.10;55.20
41760;DHT22;27438;53.396;-6.670;2022-08-01T10:44:07;25.30;54.40
41760;DHT22;27438;53.396;-6.670;2022-08-01T10:46:38;25.40;54.00
41760;DHT22;27438;53.396;-6.670;2022-08-01T10:49:10;25.40;53.30
41760;DHT22;27438;53.396;-6.670;2022-08-01T10:51:38;25.30;53.20
41760;DHT22;27438;53.396;-6.670;2022-08-01T10:54:06;25.30;53.50
41760;DHT22;27438;53.396;-6.670;2022-08-01T10:56:45;25.20;53.10
41760;DHT22;27438;53.396;-6.670;2022-08-01T10:59:35;25.10;52.80
41760;DHT22;27438;53.396;-6.670;2022-08-01T11:02:05;24.90;53.20
41760;DHT22;27438;53.396;-6.670;2022-08-01T11:07:07;24.80;53.20
41760;DHT22;27438;53.396;-6.670;2022-08-01T11:09:42;24.70;53.40
41760;DHT22;27438;53.396;-6.670;2022-08-01T11:12:15;24.60;53.70
41760;DHT22;27438;53.396;-6.670;2022-08-01T11:17:43;24.40;54.30
41760;DHT22;27438;53.396;-6.670;2022-08-01T11:26:05;23.90;55.50
41760;DHT22;27438;53.396;-6.670;2022-08-01T11:30:50;23.60;56.60
41760;DHT22;27438;53.396;-6.670;2022-08-01T11:33:17;23.60;57.00
41760;DHT22;27438;53.396;-6.670;2022-08-01T11:38:39;23.70;56.80
41760;DHT22;27438;53.396;-6.670;2022-08-01T11:41:37;23.70;56.80
41760;DHT22;27438;53.396;-6.670;2022-08-01T11:46:59;23.60;57.00
41760;DHT22;27438;53.396;-6.670;2022-08-01T11:52:08;23.30;58.20
41760;DHT22;27438;53.396;-6.670;2022-08-01T11:57:22;23.30;58.80
41760;DHT22;27438;53.396;-6.670;2022-08-01T11:59:56;23.30;58.60
41760;DHT22;27438;53.396;-6.670;2022-08-01T12:04:50;23.20;59.20
41760;DHT22;27438;53.396;-6.670;2022-08-01T12:07:17;23.20;59.40
41760;DHT22;27438;53.396;-6.670;2022-08-01T12:09:43;23.30;59.20
41760;DHT22;27438;53.396;-6.670;2022-08-01T12:12:10;23.50;59.10
41760;DHT22;27438;53.396;-6.670;2022-08-01T12:14:36;23.50;58.70
41760;DHT22;27438;53.396;-6.670;2022-08-01T12:17:01;23.50;58.70
41760;DHT22;27438;53.396;-6.670;2022-08-01T12:19:27;23.50;59.00
41760;DHT22;27438;53.396;-6.670;2022-08-01T12:24:33;23.50;59.00
41760;DHT22;27438;53.396;-6.670;2022-08-01T12:26:59;23.40;58.90
41760;DHT22;27438;53.396;-6.670;2022-08-01T12:29:50;23.50;59.10
41760;DHT22;27438;53.396;-6.670;2022-08-01T12:34:51;23.60;59.20
41760;DHT22;27438;53.396;-6.670;2022-08-01T12:37:17;23.50;59.00
41760;DHT22;27438;53.396;-6.670;2022-08-01T12:39:44;23.50;59.10
41760;DHT22;27438;53.396;-6.670;2022-08-01T12:42:11;23.40;59.70
41760;DHT22;27438;53.396;-6.670;2022-08-01T12:44:43;23.30;59.70
41760;DHT22;27438;53.396;-6.670;2022-08-01T12:47:10;23.30;59.80
41760;DHT22;27438;53.396;-6.670;2022-08-01T12:49:36;23.20;60.00
41760;DHT22;27438;53.396;-6.670;2022-08-01T12:52:04;23.10;60.30
41760;DHT22;27438;53.396;-6.670;2022-08-01T12:54:30;23.00;60.70
41760;DHT22;27438;53.396;-6.670;2022-08-01T12:56:58;23.00;61.10
41760;DHT22;27438;53.396;-6.670;2022-08-01T12:59:26;22.90;61.40
41760;DHT22;27438;53.396;-6.670;2022-08-01T13:01:55;22.80;61.60
41760;DHT22;27438;53.396;-6.670;2022-08-01T13:04:22;22.70;62.00
41760;DHT22;27438;53.396;-6.670;2022-08-01T13:06:52;22.60;62.40
41760;DHT22;27438;53.396;-6.670;2022-08-01T13:09:19;22.50;63.10
41760;DHT22;27438;53.396;-6.670;2022-08-01T13:11:45;22.50;63.80
41760;DHT22;27438;53.396;-6.670;2022-08-01T13:14:26;22.60;64.30
41760;DHT22;27438;53.396;-6.670;2022-08-01T13:16:52;22.60;64.90
41760;DHT22;27438;53.396;-6.670;2022-08-01T13:19:18;22.60;65.20
41760;DHT22;27438;53.396;-6.670;2022-08-01T13:21:55;22.60;65.50
41760;DHT22;27438;53.396;-6.670;2022-08-01T13:24:29;22.60;66.00
41760;DHT22;27438;53.396;-6.670;2022-08-01T13:26:59;22.60;66.20
41760;DHT22;27438;53.396;-6.670;2022-08-01T13:29:39;22.60;66.10
41760;DHT22;27438;53.396;-6.670;2022-08-01T13:32:16;22.50;66.40
41760;DHT22;27438;53.396;-6.670;2022-08-01T13:34:41;22.50;66.60
41760;DHT22;27438;53.396;-6.670;2022-08-01T13:37:07;22.40;66.60
41760;DHT22;27438;53.396;-6.670;2022-08-01T13:39:34;22.40;66.80
41760;DHT22;27438;53.396;-6.670;2022-08-01T13:42:11;22.30;67.30
41760;DHT22;27438;53.396;-6.670;2022-08-01T13:44:37;22.20;67.60
41760;DHT22;27438;53.396;-6.670;2022-08-01T13:47:04;22.20;67.70
41760;DHT22;27438;53.396;-6.670;2022-08-01T13:49:30;22.20;68.20
41760;DHT22;27438;53.396;-6.670;2022-08-01T13:51:56;22.10;68.50
41760;DHT22;27438;53.396;-6.670;2022-08-01T13:54:22;22.00;68.80
41760;DHT22;27438;53.396;-6.670;2022-08-01T13:56:49;21.90;69.30
41760;DHT22;27438;53.396;-6.670;2022-08-01T13:59:14;21.80;69.90
41760;DHT22;27438;53.396;-6.670;2022-08-01T14:01:40;21.70;70.80
41760;DHT22;27438;53.396;-6.670;2022-08-01T14:04:06;21.60;71.30
41760;DHT22;27438;53.396;-6.670;2022-08-01T14:06:32;21.40;71.50
41760;DHT22;27438;53.396;-6.670;2022-08-01T14:08:58;21.20;72.50
41760;DHT22;27438;53.396;-6.670;2022-08-01T14:11:24;21.00;73.60
41760;DHT22;27438;53.396;-6.670;2022-08-01T14:13:50;20.80;74.40
41760;DHT22;27438;53.396;-6.670;2022-08-01T14:16:16;20.70;75.30
41760;DHT22;27438;53.396;-6.670;2022-08-01T14:18:42;20.60;76.40
41760;DHT22;27438;53.396;-6.670;2022-08-01T14:21:08;20.60;76.60
41760;DHT22;27438;53.396;-6.670;2022-08-01T14:23:34;20.60;77.00
41760;DHT22;27438;53.396;-6.670;2022-08-01T14:26:00;20.60;77.40
41760;DHT22;27438;53.396;-6.670;2022-08-01T14:28:26;20.60;77.70
41760;DHT22;27438;53.396;-6.670;2022-08-01T14:30:53;20.60;78.00
41760;DHT22;27438;53.396;-6.670;2022-08-01T14:33:21;20.70;78.00
41760;DHT22;27438;53.396;-6.670;2022-08-01T14:35:47;20.70;78.10
41760;DHT22;27438;53.396;-6.670;2022-08-01T14:38:13;20.70;78.10
41760;DHT22;27438;53.396;-6.670;2022-08-01T14:40:39;20.70;78.10
41760;DHT22;27438;53.396;-6.670;2022-08-01T14:43:06;20.70;78.00
41760;DHT22;27438;53.396;-6.670;2022-08-01T14:45:32;20.70;78.30
41760;DHT22;27438;53.396;-6.670;2022-08-01T14:47:58;20.70;78.60
41760;DHT22;27438;53.396;-6.670;2022-08-01T14:50:24;20.70;78.80
41760;DHT22;27438;53.396;-6.670;2022-08-01T14:52:52;20.70;78.70
41760;DHT22;27438;53.396;-6.670;2022-08-01T14:55:18;20.70;78.60
41760;DHT22;27438;53.396;-6.670;2022-08-01T14:57:48;20.80;78.90
41760;DHT22;27438;53.396;-6.670;2022-08-01T15:00:15;20.80;79.00
41760;DHT22;27438;53.396;-6.670;2022-08-01T15:02:41;20.90;78.80
41760;DHT22;27438;53.396;-6.670;2022-08-01T15:05:08;20.90;79.00
41760;DHT22;27438;53.396;-6.670;2022-08-01T15:07:35;21.00;78.80
41760;DHT22;27438;53.396;-6.670;2022-08-01T15:10:01;21.00;78.80
41760;DHT22;27438;53.396;-6.670;2022-08-01T15:12:27;21.00;79.00
41760;DHT22;27438;53.396;-6.670;2022-08-01T15:14:53;21.10;78.90
41760;DHT22;27438;53.396;-6.670;2022-08-01T15:17:22;21.00;78.60
41760;DHT22;27438;53.396;-6.670;2022-08-01T15:19:50;20.90;79.10
41760;DHT22;27438;53.396;-6.670;2022-08-01T15:22:17;20.80;79.80
41760;DHT22;27438;53.396;-6.670;2022-08-01T15:24:43;20.60;80.40
41760;DHT22;27438;53.396;-6.670;2022-08-01T15:27:09;20.50;81.20
41760;DHT22;27438;53.396;-6.670;2022-08-01T15:29:36;20.30;82.30
41760;DHT22;27438;53.396;-6.670;2022-08-01T15:32:03;20.20;83.10
41760;DHT22;27438;53.396;-6.670;2022-08-01T15:34:30;20.10;83.90
41760;DHT22;27438;53.396;-6.670;2022-08-01T15:36:56;20.10;84.80
41760;DHT22;27438;53.396;-6.670;2022-08-01T15:39:23;20.10;85.20
41760;DHT22;27438;53.396;-6.670;2022-08-01T15:41:48;20.10;85.70
41760;DHT22;27438;53.396;-6.670;2022-08-01T15:44:15;20.10;85.90
41760;DHT22;27438;53.396;-6.670;2022-08-01T15:46:43;20.00;86.00
41760;DHT22;27438;53.396;-6.670;2022-08-01T15:49:09;20.00;86.60
41760;DHT22;27438;53.396;-6.670;2022-08-01T15:51:36;20.00;87.20
41760;DHT22;27438;53.396;-6.670;2022-08-01T15:54:01;20.00;87.70
41760;DHT22;27438;53.396;-6.670;2022-08-01T15:56:29;20.00;88.40
41760;DHT22;27438;53.396;-6.670;2022-08-01T15:58:55;20.10;88.60
41760;DHT22;27438;53.396;-6.670;2022-08-01T16:01:21;20.20;89.00
41760;DHT22;27438;53.396;-6.670;2022-08-01T16:03:47;20.20;88.90
41760;DHT22;27438;53.396;-6.670;2022-08-01T16:06:13;20.30;89.10